KRYY/RYY METAR and TAF weather

Enter ICAO airport designator
Station Type Date Time Source
KRYY METAR 2019/06/17 03:50 UTC NOAA

KRYY 170350Z AUTO 00000KT 10SM CLR 26/20 A3006 RMK AO2 SLP900 T02560200 403170206 $


Station Type Date Time Source
KRYY Decoded METAR 2019/06/17 03:50 UTC NOAA

Marietta, Cobb County-McCollum Field Airport, GA, United States (KRYY) 34-00-47N 084-35-55W
Jun 16, 2019 - 11:50 PM EDT / 2019.06.17 0350 UTC
Wind: Calm:0
Visibility: 10 mile(s):0
Sky conditions: clear
Temperature: 78.1 F (25.6 C)
Dew Point: 68.0 F (20.0 C)
Relative Humidity: 71%
Pressure (altimeter): 30.06 in. Hg (1017 hPa)
ob: KRYY 170350Z AUTO 00000KT 10SM CLR 26/20 A3006 RMK AO2 SLP900 T02560200 403170206
cycle: 4

Station Type Date Time Source
KRYY TAF 2019/06/16 18:34 UTC NOAA

TAF KRYY 161731Z 1618/1718 25006KT P6SM SCT050
FM162000 23007KT P6SM BKN050
FM170200 19004KT P6SM FEW250
FM171500 25003KT P6SM SCT030
FM171700 21005KT P6SM BKN040

Example: see airport list